Time;durP1;ratioP1;P1;durP2;ratioP2;P2;SDS_P1;SDS_P2;PMS_P1;PMS_P2;Temp;Humidity;BMP_temperature;BMP_pressure;BME280_temperature;BME280_humidity;BME280_pressure;Samples;Min_cycle;Max_cycle;Signal;HPM_P1;HPM_P2
2021/10/09 03:20:13;;;;;;;31.97;23.00;;;11.70;99.90;;;;;;6065796;23;20211;-93
2021/10/09 03:23:36;;;;;;;33.07;23.47;;;11.60;99.90;;;;;;6063658;23;20179;-94
2021/10/09 03:26:49;;;;;;;;;;;;;;;;;;;;;
2021/10/09 03:33:49;;;;;;;;;;;;;;;;;;;;;
2021/10/09 03:55:16;;;;;;;;;;;;;;;;;;;;;
2021/10/09 03:59:03;;;;;;;;;;;;;;;;;;;;;
2021/10/09 04:13:26;;;;;;;;;;;;;;;;;;;;;
2021/10/09 04:27:33;;;;;;;;;;;;;;;;;;;;;
2021/10/09 04:34:27;;;;;;;;;;;;;;;;;;;;;
2021/10/09 04:44:59;;;;;;;;;;;;;;;;;;;;;
2021/10/09 04:48:28;;;;;;;;;;;;;;;;;;;;;
2021/10/09 04:54:58;;;;;;;38.70;23.70;;;11.70;99.90;;;;;;6040134;23;20160;-92
2021/10/09 08:41:09;;;;;;;40.53;26.17;;;13.70;99.90;;;;;;6224467;23;20144;-77
2021/10/09 08:43:35;;;;;;;42.93;27.90;;;13.60;99.90;;;;;;6213386;23;20144;-77
2021/10/09 08:46:01;;;;;;;41.30;26.87;;;13.60;99.90;;;;;;6214038;23;20193;-77
2021/10/09 08:48:29;;;;;;;43.43;26.83;;;13.70;99.90;;;;;;6215313;23;20135;-77
2021/10/09 08:50:58;;;;;;;42.33;27.33;;;13.70;99.90;;;;;;6212441;23;20573;-76
2021/10/09 08:53:40;;;;;;;45.03;26.67;;;13.80;99.90;;;;;;6158101;23;20174;-76
2021/10/09 08:56:07;;;;;;;40.33;26.37;;;13.80;99.90;;;;;;6185141;23;20141;-76
2021/10/09 08:58:39;;;;;;;39.23;26.13;;;13.90;99.90;;;;;;6159546;23;20187;-76
2021/10/09 09:04:07;;;;;;;39.53;26.17;;;13.90;99.90;;;;;;6188636;23;20165;-76
2021/10/09 09:32:32;;;;;;;39.77;26.13;;;14.20;99.90;;;;;;6131943;23;20175;-76
2021/10/09 09:40:08;;;;;;;41.43;26.23;;;14.50;99.90;;;;;;6166579;23;20155;-87
2021/10/09 09:42:46;;;;;;;41.40;25.60;;;14.60;99.90;;;;;;6133235;23;20204;-88
2021/10/09 09:45:20;;;;;;;38.50;25.30;;;14.60;99.90;;;;;;6134388;23;20233;-91
2021/10/09 09:47:46;;;;;;;38.87;25.30;;;14.50;99.90;;;;;;6132426;23;20142;-88
2021/10/09 09:50:15;;;;;;;42.40;25.03;;;14.60;99.90;;;;;;6132399;23;20146;-88
2021/10/09 09:52:44;;;;;;;38.60;23.97;;;14.80;99.90;;;;;;6132957;23;20156;-86
2021/10/09 09:55:15;;;;;;;39.40;24.97;;;14.90;99.90;;;;;;6134936;23;20157;-86
2021/10/09 09:57:41;;;;;;;37.87;24.73;;;15.00;99.90;;;;;;6132959;23;20216;-86
2021/10/09 10:00:10;;;;;;;36.37;24.63;;;14.90;99.90;;;;;;6135550;23;20147;-85
2021/10/09 10:02:52;;;;;;;37.33;24.87;;;15.00;99.90;;;;;;6132540;23;20157;-87
2021/10/09 10:05:21;;;;;;;38.50;22.57;;;15.10;99.90;;;;;;6132826;23;20195;-86
2021/10/09 10:07:47;;;;;;;36.00;23.73;;;15.20;99.90;;;;;;6132508;23;20166;-86
2021/10/09 10:10:14;;;;;;;38.63;23.23;;;15.30;99.90;;;;;;6136551;23;20569;-86
2021/10/09 10:12:40;;;;;;;36.57;23.83;;;15.30;99.90;;;;;;6138889;23;20148;-86
2021/10/09 10:15:09;;;;;;;32.47;21.67;;;15.40;99.90;;;;;;6134828;23;20156;-85
2021/10/09 10:17:39;;;;;;;38.97;23.73;;;15.50;99.90;;;;;;6134243;23;20196;-86
2021/10/09 10:20:07;;;;;;;36.63;22.33;;;15.40;99.90;;;;;;6132731;23;20145;-87
2021/10/09 10:22:33;;;;;;;33.60;21.67;;;15.50;99.90;;;;;;6134532;23;20156;-88
2021/10/09 10:24:59;;;;;;;39.87;22.47;;;15.50;99.90;;;;;;6131907;23;20153;-87
2021/10/09 10:27:37;;;;;;;33.53;21.87;;;15.50;99.90;;;;;;6137284;23;20172;-89
2021/10/09 10:30:15;;;;;;;34.77;22.20;;;15.50;99.90;;;;;;6133569;23;20590;-86
2021/10/09 10:33:02;;;;;;;31.90;20.80;;;15.60;99.90;;;;;;6140508;23;20213;-94
2021/10/09 10:35:30;;;;;;;30.90;18.90;;;15.70;99.90;;;;;;6106665;23;20171;-91
2021/10/09 10:38:22;;;;;;;29.53;18.23;;;15.90;99.90;;;;;;6132127;23;20270;-95
2021/10/09 10:41:03;;;;;;;30.90;20.70;;;16.40;99.90;;;;;;6141420;23;20177;-91
2021/10/09 10:54:18;;;;;;;24.07;15.70;;;21.70;98.50;;;;;;6183023;23;20152;-90
2021/10/09 10:56:59;;;;;;;22.67;15.90;;;22.60;97.20;;;;;;6144316;23;20209;-92
2021/10/09 10:59:52;;;;;;;19.53;14.67;;;23.40;95.90;;;;;;6146232;23;20167;-87
2021/10/09 11:02:30;;;;;;;19.60;13.87;;;24.20;94.10;;;;;;6148661;23;20172;-88
2021/10/09 11:05:02;;;;;;;18.80;13.73;;;24.90;92.80;;;;;;6147636;23;20173;-93
2021/10/09 11:07:33;;;;;;;17.63;13.20;;;25.60;90.80;;;;;;6147100;23;20161;-90
2021/10/09 11:10:08;;;;;;;17.97;13.17;;;25.60;90.60;;;;;;6139808;23;20159;-95
2021/10/09 11:12:48;;;;;;;19.67;13.37;;;26.20;89.30;;;;;;6136425;23;20159;-93
2021/10/09 11:15:20;;;;;;;18.20;12.93;;;26.90;87.00;;;;;;6137827;23;20153;-96
2021/10/09 11:17:57;;;;;;;18.50;13.03;;;27.30;85.20;;;;;;6136984;23;20184;-95
2021/10/09 11:20:26;;;;;;;17.67;12.27;;;27.70;82.90;;;;;;6141040;23;20145;-94
2021/10/09 11:22:54;;;;;;;19.15;12.82;;;27.90;82.50;;;;;;6131219;23;20236;-87
2021/10/09 11:25:40;;;;;;;19.20;12.10;;;28.70;80.70;;;;;;6128996;23;20188;-87
2021/10/09 11:28:20;;;;;;;17.27;13.52;;;28.60;80.30;;;;;;6130383;23;20152;-87
2021/10/09 11:30:46;;;;;;;18.60;12.43;;;29.20;77.70;;;;;;6130428;23;20172;-87
2021/10/09 11:33:12;;;;;;;17.02;12.88;;;29.20;78.30;;;;;;6130365;23;20638;-87
2021/10/09 11:35:39;;;;;;;16.05;12.65;;;29.40;77.40;;;;;;6131364;23;20154;-88
2021/10/09 11:38:20;;;;;;;15.23;12.32;;;29.70;75.10;;;;;;6131087;23;20181;-87
2021/10/09 11:40:54;;;;;;;18.95;13.60;;;29.90;74.00;;;;;;6131750;23;20205;-88
2021/10/09 14:16:51;;;;;;;8.85;6.55;;;36.00;51.60;;;;;;6157066;23;20215;-80
2021/10/09 14:19:18;;;;;;;10.45;6.97;;;35.90;51.60;;;;;;6129628;23;20594;-80
2021/10/09 14:21:44;;;;;;;9.35;6.90;;;34.70;52.60;;;;;;6156188;23;20185;-80
2021/10/09 14:24:09;;;;;;;9.38;6.82;;;34.60;52.60;;;;;;6155663;23;20145;-80
2021/10/09 14:26:35;;;;;;;8.40;6.95;;;33.80;53.40;;;;;;6154740;23;20134;-80
2021/10/09 14:29:00;;;;;;;8.63;7.47;;;32.50;54.60;;;;;;6153927;23;20579;-80
2021/10/09 14:31:26;;;;;;;10.32;8.57;;;31.50;55.80;;;;;;6128443;23;20180;-80
2021/10/09 14:33:52;;;;;;;12.02;8.38;;;30.60;56.40;;;;;;6155301;23;20142;-80
2021/10/09 14:36:17;;;;;;;12.70;9.02;;;29.80;57.80;;;;;;6130370;23;20153;-81
2021/10/09 14:38:43;;;;;;;14.40;9.30;;;29.00;58.60;;;;;;6155918;23;20181;-79
2021/10/09 14:41:09;;;;;;;11.93;8.47;;;28.50;58.80;;;;;;6156521;23;20138;-79
2021/10/09 14:43:35;;;;;;;12.63;8.97;;;28.10;59.10;;;;;;6156179;23;20146;-79
2021/10/09 14:46:23;;;;;;;12.10;8.47;;;28.30;59.60;;;;;;6129771;23;20157;-80
2021/10/09 14:48:47;;;;;;;9.03;8.10;;;29.00;59.50;;;;;;6155905;23;20168;-80
2021/10/09 15:18:23;;;;;;;10.82;6.60;;;32.80;54.20;;;;;;6155800;23;20287;-82
2021/10/09 15:20:51;;;;;;;9.68;6.53;;;33.00;54.00;;;;;;6156035;23;20141;-82
2021/10/09 15:23:17;;;;;;;8.52;6.05;;;33.00;53.60;;;;;;6129359;23;20160;-82
2021/10/09 15:25:44;;;;;;;7.68;6.82;;;32.80;54.10;;;;;;6155533;23;20161;-83
2021/10/09 15:28:11;;;;;;;10.65;7.13;;;32.80;54.00;;;;;;6155327;23;20134;-80
2021/10/09 15:30:38;;;;;;;9.85;6.70;;;33.10;54.10;;;;;;6128781;23;20156;-80
2021/10/09 15:33:04;;;;;;;10.18;7.00;;;32.80;54.30;;;;;;6129114;23;20181;-80
2021/10/09 15:35:31;;;;;;;9.45;7.03;;;32.90;54.30;;;;;;6153553;23;20145;-80
2021/10/09 15:37:57;;;;;;;8.65;6.82;;;32.70;54.40;;;;;;6153535;23;20184;-79
2021/10/09 15:40:23;;;;;;;10.25;7.13;;;32.60;53.70;;;;;;6128960;23;20145;-81
2021/10/09 15:42:52;;;;;;;10.27;7.10;;;32.60;53.80;;;;;;6129573;23;20153;-82
2021/10/09 15:45:19;;;;;;;11.60;7.18;;;31.80;54.20;;;;;;6128836;23;20145;-83
2021/10/09 15:47:48;;;;;;;8.57;6.88;;;31.70;54.30;;;;;;6155383;23;20477;-82
2021/10/09 15:50:14;;;;;;;10.48;7.05;;;31.70;56.10;;;;;;6129414;23;20571;-83
2021/10/09 15:52:41;;;;;;;10.52;6.97;;;31.30;56.30;;;;;;6129324;23;20153;-82
2021/10/09 15:55:08;;;;;;;9.73;6.65;;;31.30;55.30;;;;;;6129260;23;20232;-80
2021/10/09 15:57:34;;;;;;;10.15;6.22;;;31.40;54.90;;;;;;6129134;23;20189;-83
2021/10/09 15:59:59;;;;;;;11.45;6.55;;;31.10;55.70;;;;;;6129048;23;20149;-82
2021/10/09 16:02:25;;;;;;;9.40;6.63;;;30.70;57.10;;;;;;6129095;23;20145;-81
2021/10/09 16:04:50;;;;;;;10.60;7.03;;;30.20;57.00;;;;;;6155381;23;20134;-81
2021/10/09 16:07:17;;;;;;;10.82;6.78;;;29.40;58.00;;;;;;6155073;23;20234;-80
2021/10/09 16:09:43;;;;;;;12.67;7.70;;;28.70;58.60;;;;;;6154643;23;20630;-80
2021/10/09 16:12:08;;;;;;;10.13;7.03;;;28.00;60.30;;;;;;6155262;23;20138;-80
2021/10/09 16:14:34;;;;;;;10.70;7.43;;;27.50;61.10;;;;;;6155495;23;20141;-80
2021/10/09 16:17:01;;;;;;;9.20;7.30;;;27.20;62.80;;;;;;6154894;23;20604;-79
2021/10/09 16:19:26;;;;;;;11.70;7.93;;;26.80;63.30;;;;;;6155322;23;20513;-80
2021/10/09 16:21:52;;;;;;;11.37;7.73;;;26.30;63.50;;;;;;6154723;23;20165;-79
2021/10/09 16:24:17;;;;;;;14.47;7.70;;;26.00;65.00;;;;;;6155158;23;20165;-81
2021/10/09 16:26:44;;;;;;;12.50;8.10;;;25.40;65.30;;;;;;6155095;23;20141;-80
2021/10/09 16:29:10;;;;;;;15.00;8.73;;;25.20;67.50;;;;;;6154906;23;20143;-81
2021/10/09 16:31:36;;;;;;;9.20;7.63;;;24.80;67.00;;;;;;6154822;23;20165;-82
2021/10/09 16:34:02;;;;;;;11.07;8.20;;;24.40;69.00;;;;;;6128979;23;20520;-82
2021/10/09 16:40:11;;;;;;;12.17;8.43;;;24.10;69.50;;;;;;6156714;23;20171;-94
2021/10/09 16:43:26;;;;;;;12.20;8.43;;;23.70;71.30;;;;;;6124662;23;20169;-95
2021/10/09 16:45:51;;;;;;;13.37;8.40;;;23.50;71.30;;;;;;6112194;23;20161;-81
2021/10/09 16:48:17;;;;;;;12.77;8.13;;;23.20;72.00;;;;;;6154114;23;20152;-79
2021/10/09 16:50:43;;;;;;;12.60;8.37;;;23.10;72.70;;;;;;6127049;23;20189;-80
2021/10/09 16:53:08;;;;;;;11.63;8.23;;;22.80;73.50;;;;;;6155638;23;20146;-75
2021/10/09 16:55:36;;;;;;;13.70;9.27;;;22.90;73.40;;;;;;6152535;23;20193;-76
2021/10/09 16:58:01;;;;;;;13.17;8.70;;;22.60;74.00;;;;;;6153596;23;20184;-80
2021/10/09 17:00:27;;;;;;;14.53;10.03;;;22.50;73.80;;;;;;6154703;23;20479;-78
2021/10/09 17:02:53;;;;;;;12.53;9.80;;;22.40;74.70;;;;;;6153440;23;20169;-80
2021/10/09 17:05:19;;;;;;;14.17;9.80;;;22.20;74.50;;;;;;6128772;23;20178;-77
2021/10/09 17:07:45;;;;;;;14.53;9.60;;;22.00;75.70;;;;;;6154113;23;20589;-79
2021/10/09 17:10:11;;;;;;;15.63;9.47;;;21.90;76.30;;;;;;6154960;23;20556;-78
2021/10/09 17:12:36;;;;;;;19.90;10.20;;;21.70;77.00;;;;;;6154294;23;20220;-77
2021/10/09 17:15:03;;;;;;;15.37;9.30;;;21.60;78.10;;;;;;6125312;23;20188;-78
2021/10/09 17:17:29;;;;;;;14.80;10.07;;;21.60;78.30;;;;;;6127505;23;20200;-80
2021/10/09 17:19:54;;;;;;;15.67;10.63;;;21.40;78.40;;;;;;6151862;23;20148;-79
2021/10/09 17:22:20;;;;;;;15.20;10.73;;;21.40;78.80;;;;;;6152946;23;20164;-79
2021/10/09 17:24:45;;;;;;;13.67;10.67;;;21.20;79.10;;;;;;6151855;23;20145;-78
2021/10/09 17:27:11;;;;;;;15.27;11.10;;;21.00;80.00;;;;;;6149767;23;20141;-79
2021/10/09 17:29:37;;;;;;;17.37;10.97;;;20.90;81.40;;;;;;6151889;23;20165;-78
2021/10/09 17:32:03;;;;;;;15.50;11.40;;;20.80;81.70;;;;;;6152851;23;20667;-78
2021/10/09 17:34:30;;;;;;;16.10;11.30;;;21.00;80.80;;;;;;6151970;23;20141;-78
2021/10/09 17:36:56;;;;;;;16.20;11.00;;;20.70;81.50;;;;;;6150968;23;20626;-77
2021/10/09 17:39:22;;;;;;;17.40;11.33;;;20.70;81.60;;;;;;6152817;23;20141;-79
2021/10/09 17:41:47;;;;;;;14.70;11.40;;;20.50;82.10;;;;;;6154707;23;20148;-79
2021/10/09 17:44:13;;;;;;;19.97;11.93;;;20.30;82.80;;;;;;6151356;23;20173;-79
2021/10/09 17:46:39;;;;;;;18.60;12.10;;;20.40;82.80;;;;;;6151737;23;20500;-77
2021/10/09 17:49:05;;;;;;;18.07;11.47;;;20.30;83.60;;;;;;6150010;23;20190;-79
2021/10/09 17:51:33;;;;;;;18.57;11.63;;;20.10;84.50;;;;;;6152587;23;20595;-75
2021/10/09 17:53:59;;;;;;;16.03;11.77;;;20.10;84.60;;;;;;6155766;23;20529;-77
2021/10/09 17:56:27;;;;;;;18.37;12.40;;;19.90;85.40;;;;;;6153326;23;20574;-78
2021/10/09 17:58:53;;;;;;;17.83;12.07;;;19.70;86.30;;;;;;6154453;23;20155;-75
2021/10/09 18:01:18;;;;;;;16.47;11.77;;;19.50;87.50;;;;;;6154251;23;20205;-76
2021/10/09 18:03:44;;;;;;;21.57;13.17;;;19.60;87.60;;;;;;6154314;23;20219;-78
2021/10/09 18:06:10;;;;;;;19.03;12.63;;;19.40;88.40;;;;;;6154848;23;20144;-78
2021/10/09 18:08:35;;;;;;;19.50;13.03;;;19.30;89.10;;;;;;6153161;23;20137;-74
2021/10/09 18:11:01;;;;;;;19.77;13.43;;;19.30;89.80;;;;;;6152977;23;20475;-75
2021/10/09 18:13:27;;;;;;;19.80;13.17;;;19.30;90.30;;;;;;6150097;23;20223;-74
2021/10/09 18:15:53;;;;;;;18.93;13.27;;;19.20;90.60;;;;;;6154474;23;20156;-75
2021/10/09 18:18:20;;;;;;;20.87;14.47;;;19.00;91.00;;;;;;6154243;23;20196;-75
2021/10/09 18:20:46;;;;;;;20.03;12.97;;;19.00;91.20;;;;;;6153630;23;20213;-76
2021/10/09 18:23:12;;;;;;;21.97;14.37;;;18.90;91.30;;;;;;6153325;23;20174;-74
2021/10/09 18:25:42;;;;;;;24.80;14.03;;;18.80;91.80;;;;;;6153879;23;20467;-74
2021/10/09 18:28:08;;;;;;;22.90;14.43;;;18.80;92.30;;;;;;6151095;23;20161;-74
2021/10/09 18:30:36;;;;;;;18.53;13.17;;;18.90;92.20;;;;;;6152060;23;20159;-74
2021/10/09 18:33:02;;;;;;;17.27;12.77;;;18.70;92.70;;;;;;6151934;23;20206;-75
2021/10/09 18:35:28;;;;;;;20.03;13.47;;;18.50;93.30;;;;;;6150587;23;20139;-74
2021/10/09 18:37:54;;;;;;;19.87;13.70;;;18.40;93.80;;;;;;6152373;23;20171;-75
2021/10/09 18:40:20;;;;;;;21.17;14.00;;;18.20;94.30;;;;;;6151644;23;20561;-75
2021/10/09 18:42:45;;;;;;;21.40;14.03;;;18.10;94.50;;;;;;6151332;23;20140;-74
2021/10/09 18:45:11;;;;;;;22.60;16.67;;;18.10;95.00;;;;;;6151932;23;20139;-73
2021/10/09 18:47:39;;;;;;;21.67;15.47;;;18.10;95.20;;;;;;6153614;23;20583;-73
2021/10/09 18:50:06;;;;;;;21.43;14.57;;;18.10;95.30;;;;;;6152166;23;20138;-76
2021/10/09 18:52:32;;;;;;;21.43;13.97;;;18.20;95.40;;;;;;6151730;23;20149;-73
2021/10/09 18:54:58;;;;;;;20.83;13.20;;;18.10;95.50;;;;;;6153092;23;20158;-73
2021/10/09 18:57:24;;;;;;;18.80;13.73;;;18.10;95.80;;;;;;6151451;23;20686;-73
2021/10/09 18:59:53;;;;;;;18.00;13.20;;;17.80;96.40;;;;;;6152218;23;20134;-76
2021/10/09 19:02:19;;;;;;;19.07;13.07;;;17.70;97.10;;;;;;6153843;23;20143;-76
2021/10/09 19:04:45;;;;;;;22.17;14.07;;;17.50;97.70;;;;;;6152023;23;20135;-75
2021/10/09 19:07:11;;;;;;;19.53;13.27;;;17.40;98.20;;;;;;6152308;23;20162;-79
2021/10/09 19:09:37;;;;;;;22.47;13.17;;;17.40;98.50;;;;;;6151391;23;20559;-77
2021/10/09 19:12:02;;;;;;;22.37;14.67;;;17.30;98.80;;;;;;6153817;23;20168;-80
2021/10/09 19:14:29;;;;;;;18.90;13.93;;;17.30;98.90;;;;;;6151495;23;20538;-78
2021/10/09 19:16:56;;;;;;;24.37;14.77;;;17.20;99.20;;;;;;6152322;23;20529;-79
2021/10/09 19:19:23;;;;;;;19.07;13.73;;;17.20;99.30;;;;;;6152561;23;20225;-76
2021/10/09 19:21:50;;;;;;;23.63;17.27;;;17.10;99.80;;;;;;6139650;23;20200;-80
2021/10/09 19:24:16;;;;;;;25.23;15.43;;;17.00;99.90;;;;;;6150847;23;20137;-78
2021/10/09 19:26:42;;;;;;;25.50;15.33;;;16.90;99.90;;;;;;6152365;23;20477;-76
2021/10/09 19:29:08;;;;;;;22.67;16.70;;;17.00;99.90;;;;;;6152710;23;20472;-79
2021/10/09 19:31:34;;;;;;;23.47;14.80;;;17.00;99.90;;;;;;6151784;23;20179;-79
2021/10/09 19:36:41;;;;;;;25.97;14.90;;;16.80;99.90;;;;;;6161781;23;20166;-75
2021/10/09 19:39:07;;;;;;;23.03;15.33;;;16.70;99.90;;;;;;6125624;23;20161;-80
2021/10/09 19:41:32;;;;;;;21.87;14.17;;;16.70;99.90;;;;;;6149999;23;20164;-80
2021/10/09 19:43:58;;;;;;;23.10;15.97;;;16.60;99.90;;;;;;6152782;23;20142;-79
2021/10/09 19:46:24;;;;;;;24.43;15.37;;;16.40;99.90;;;;;;6155295;23;20571;-80
2021/10/09 19:48:50;;;;;;;20.13;15.03;;;16.30;99.90;;;;;;6152697;23;20130;-80
2021/10/09 19:51:22;;;;;;;22.13;14.73;;;16.20;99.90;;;;;;6156332;23;20145;-78
2021/10/09 19:54:04;;;;;;;23.70;17.60;;;16.20;99.90;;;;;;6154940;23;20131;-78
2021/10/09 19:56:30;;;;;;;24.90;16.43;;;16.20;99.90;;;;;;6157934;23;20140;-76
2021/10/09 19:58:55;;;;;;;24.63;16.27;;;16.10;99.90;;;;;;6133377;23;20205;-76
2021/10/09 20:01:22;;;;;;;24.23;16.00;;;16.20;99.90;;;;;;6158117;23;20571;-79
2021/10/09 20:03:48;;;;;;;25.57;16.77;;;16.20;99.90;;;;;;6159466;23;20186;-78
2021/10/09 20:06:17;;;;;;;24.03;16.33;;;16.10;99.90;;;;;;6161576;23;20138;-77
2021/10/09 20:08:46;;;;;;;22.27;16.07;;;16.20;99.90;;;;;;6133328;23;20494;-80
2021/10/09 20:11:17;;;;;;;26.17;17.10;;;16.40;99.90;;;;;;6160581;23;20129;-78
2021/10/09 20:13:43;;;;;;;23.00;16.13;;;16.30;99.90;;;;;;6160097;23;20136;-80
2021/10/09 20:16:08;;;;;;;25.20;16.70;;;16.10;99.90;;;;;;6159078;23;20528;-79
2021/10/09 20:18:35;;;;;;;26.00;17.57;;;15.90;99.90;;;;;;6159045;23;20184;-78
2021/10/09 20:21:03;;;;;;;25.47;17.60;;;15.90;99.90;;;;;;6129404;23;20150;-79
2021/10/09 20:23:31;;;;;;;28.43;18.57;;;15.90;99.90;;;;;;6157297;23;20149;-79
2021/10/09 20:25:57;;;;;;;25.97;18.37;;;15.90;99.90;;;;;;6155462;23;20129;-78
2021/10/09 20:28:23;;;;;;;30.80;18.73;;;15.70;99.90;;;;;;6157172;23;20200;-79
2021/10/09 20:30:48;;;;;;;29.33;18.83;;;15.70;99.90;;;;;;6130984;23;20508;-77
2021/10/09 20:33:14;;;;;;;27.60;18.63;;;15.70;99.90;;;;;;6156053;23;20169;-80
2021/10/09 20:35:39;;;;;;;30.13;21.07;;;15.60;99.90;;;;;;6155852;23;20144;-79
2021/10/09 20:38:06;;;;;;;32.00;21.70;;;15.60;99.90;;;;;;6155836;23;20242;-79
2021/10/09 20:40:33;;;;;;;26.33;18.80;;;15.60;99.90;;;;;;6156007;23;20130;-80
2021/10/09 20:42:59;;;;;;;28.53;18.90;;;15.50;99.90;;;;;;6154978;23;20627;-78
2021/10/09 20:45:25;;;;;;;28.03;17.70;;;15.50;99.90;;;;;;6155302;23;20137;-79
2021/10/09 20:47:51;;;;;;;30.27;18.00;;;15.50;99.90;;;;;;6154330;23;20201;-79
2021/10/09 20:50:17;;;;;;;28.33;18.13;;;15.40;99.90;;;;;;6128893;23;20137;-78
2021/10/09 20:52:43;;;;;;;25.23;18.87;;;15.40;99.90;;;;;;6155258;23;20138;-78
2021/10/09 20:55:09;;;;;;;25.27;18.83;;;15.30;99.90;;;;;;6156694;23;20140;-80
2021/10/09 20:57:35;;;;;;;34.03;20.17;;;15.40;99.90;;;;;;6157337;23;20173;-78
2021/10/09 21:00:00;;;;;;;29.07;18.33;;;15.30;99.90;;;;;;6156215;23;20607;-77
2021/10/09 21:02:26;;;;;;;28.27;19.93;;;15.30;99.90;;;;;;6157481;23;20141;-78
2021/10/09 21:04:52;;;;;;;33.87;20.77;;;15.30;99.90;;;;;;6156353;23;20559;-80
2021/10/09 21:09:49;;;;;;;27.23;19.30;;;15.10;99.90;;;;;;6156847;23;20149;-79
2021/10/09 21:23:03;;;;;;;27.77;20.57;;;15.00;99.90;;;;;;6158099;23;20261;-78
2021/10/09 21:25:28;;;;;;;27.77;18.73;;;15.00;99.90;;;;;;6157441;23;20137;-78
2021/10/09 21:27:54;;;;;;;31.93;21.23;;;15.10;99.90;;;;;;6159385;23;20144;-77
2021/10/09 21:30:20;;;;;;;33.57;23.20;;;15.00;99.90;;;;;;6158462;23;20202;-75
2021/10/09 21:32:46;;;;;;;35.80;23.90;;;14.90;99.90;;;;;;6158646;23;20664;-79
2021/10/09 21:35:12;;;;;;;31.53;22.63;;;14.90;99.90;;;;;;6157339;23;20490;-78
2021/10/09 21:37:37;;;;;;;32.93;20.90;;;14.80;99.90;;;;;;6159016;23;20202;-78
2021/10/09 21:40:05;;;;;;;28.47;20.53;;;14.80;99.90;;;;;;6157736;23;20134;-78
2021/10/09 21:42:31;;;;;;;33.20;21.17;;;14.70;99.90;;;;;;6158708;23;20209;-78
2021/10/09 21:44:56;;;;;;;29.37;20.33;;;14.60;99.90;;;;;;6159464;23;20137;-79
2021/10/09 21:47:22;;;;;;;31.57;21.60;;;14.60;99.90;;;;;;6133891;23;20164;-78
2021/10/09 21:49:48;;;;;;;32.73;22.87;;;14.50;99.90;;;;;;6159854;23;20145;-79
2021/10/09 21:52:13;;;;;;;28.83;21.03;;;14.50;99.90;;;;;;6132229;23;20236;-77
2021/10/09 21:54:39;;;;;;;32.03;21.60;;;14.40;99.90;;;;;;6156843;23;20634;-80
2021/10/09 21:57:10;;;;;;;36.03;22.73;;;14.40;99.90;;;;;;6157457;23;20207;-77
2021/10/09 22:03:13;;;;;;;33.30;22.23;;;14.30;99.90;;;;;;6144496;23;20185;-79
2021/10/09 22:34:40;;;;;;;34.83;23.13;;;13.80;99.90;;;;;;6156319;23;20154;-81
2021/10/09 22:37:05;;;;;;;35.87;22.93;;;13.70;99.90;;;;;;6155538;23;20167;-83
2021/10/09 22:39:31;;;;;;;32.43;22.20;;;13.70;99.90;;;;;;6156322;23;20242;-80
2021/10/09 22:41:57;;;;;;;37.10;24.13;;;13.70;99.90;;;;;;6130526;23;20268;-81
2021/10/09 22:44:23;;;;;;;32.43;22.27;;;13.70;99.90;;;;;;6156253;23;20136;-80
2021/10/09 22:46:48;;;;;;;35.23;22.40;;;13.70;99.90;;;;;;6156167;23;20209;-80
2021/10/09 22:49:14;;;;;;;37.17;23.80;;;13.60;99.90;;;;;;6129769;23;20167;-79
2021/10/09 22:51:40;;;;;;;32.67;22.73;;;13.60;99.90;;;;;;6129739;23;20145;-81
2021/10/09 22:54:05;;;;;;;34.67;22.87;;;13.50;99.90;;;;;;6129779;23;20202;-78
2021/10/09 22:56:31;;;;;;;37.27;23.30;;;13.60;99.90;;;;;;6156207;23;20162;-81
2021/10/09 22:58:57;;;;;;;33.70;23.37;;;13.50;99.90;;;;;;6155967;23;20176;-79
2021/10/09 23:01:22;;;;;;;34.70;22.77;;;13.60;99.90;;;;;;6129769;23;20200;-82
2021/10/09 23:03:48;;;;;;;34.43;23.20;;;13.50;99.90;;;;;;6129828;23;20227;-82
2021/10/09 23:06:13;;;;;;;35.40;22.67;;;13.40;99.90;;;;;;6155544;23;20589;-79
2021/10/09 23:08:39;;;;;;;34.17;22.60;;;13.40;99.90;;;;;;6155425;23;20146;-80
2021/10/09 23:11:05;;;;;;;36.40;23.20;;;13.40;99.90;;;;;;6155891;23;20148;-79
2021/10/09 23:13:30;;;;;;;38.77;23.97;;;13.30;99.90;;;;;;6129629;23;20235;-82
2021/10/09 23:15:56;;;;;;;31.63;22.30;;;13.20;99.90;;;;;;6129756;23;20219;-82
2021/10/09 23:18:21;;;;;;;35.27;23.03;;;13.20;99.90;;;;;;6128668;23;20234;-78
2021/10/09 23:20:47;;;;;;;33.67;21.80;;;13.10;99.90;;;;;;6155804;23;20592;-79
2021/10/09 23:23:13;;;;;;;36.47;22.30;;;13.10;99.90;;;;;;6155608;23;20148;-81
2021/10/09 23:25:38;;;;;;;37.57;24.13;;;13.20;99.90;;;;;;6155711;23;20144;-83
2021/10/09 23:28:04;;;;;;;33.77;22.87;;;13.10;99.90;;;;;;6129270;23;20159;-80
2021/10/09 23:30:30;;;;;;;33.77;23.07;;;13.00;99.90;;;;;;6129451;23;20153;-79
2021/10/09 23:32:56;;;;;;;35.80;22.80;;;13.00;99.90;;;;;;6155575;23;20176;-81
2021/10/09 23:35:22;;;;;;;35.97;23.03;;;12.90;99.90;;;;;;6128867;23;20178;-78
2021/10/09 23:37:48;;;;;;;37.63;23.90;;;13.00;99.90;;;;;;6155164;23;20200;-79
2021/10/09 23:40:14;;;;;;;38.53;23.63;;;13.00;99.90;;;;;;6155524;23;20144;-82
2021/10/09 23:42:39;;;;;;;38.77;23.97;;;13.00;99.90;;;;;;6155582;23;20163;-80
2021/10/09 23:45:06;;;;;;;32.07;21.90;;;12.90;99.90;;;;;;6129501;23;20640;-81
2021/10/09 23:47:32;;;;;;;38.20;23.30;;;12.90;99.90;;;;;;6155310;23;20593;-82
2021/10/09 23:49:58;;;;;;;35.80;22.33;;;12.90;99.90;;;;;;6154831;23;20561;-79
2021/10/09 23:52:23;;;;;;;34.07;23.40;;;12.90;99.90;;;;;;6155218;23;20144;-82
2021/10/09 23:54:49;;;;;;;36.43;22.93;;;12.80;99.90;;;;;;6129857;23;20159;-81
2021/10/09 23:57:15;;;;;;;36.20;23.50;;;12.70;99.90;;;;;;6155140;23;20250;-80
2021/10/09 23:59:41;;;;;;;31.87;21.97;;;12.70;99.90;;;;;;6156116;23;20189;-83
